Mora, MN

1:00 AM CDT on April 24, 2018 (GMT -0500)
Mora Municipal

Weather History for KJMR - March, 2013

Change the Weather History Date:

Tuesday, March 19, 2013

  Actual Average Record
Temperature  
Mean Temperature 17 °F -  
Max Temperature 26 °F 39 °F 73 °F (2012)
Min Temperature 8 °F 17 °F -9 °F (1944)
Degree Days  
Heating Degree Days 48    
Moisture  
Dew Point 0 °F    
Average Humidity 53    
Maximum Humidity 73    
Minimum Humidity 36    
Precipitation  
Precipitation 0.00 in - - ()
Sea Level Pressure  
Sea Level Pressure 29.96 in    
Wind  
Wind Speed 14 mph (WNW)    
Max Wind Speed 20 mph    
Max Gust Speed 26 mph    
Visibility 9 miles    
Events Snow    
Averages and records for this station are not official NWS values.
T = Trace of Precipitation, MM = Missing Value Source: NWS Daily Summary

Daily Weather History Graph

Daily Weather History Graph

Search for Another Location

Airport or City:

Astronomy

Mar. 19, 2013 Rise Set
Actual Time 7:17 AM CDT 7:24 PM CDT
Civil Twilight 6:47 AM CDT 7:54 PM CDT
Nautical Twilight 6:12 AM CDT 8:29 PM CDT
Astronomical Twilight 5:37 AM CDT 9:05 PM CDT
Moon 11:50 AM CDT (3/19) 2:29 AM CDT (3/19)
Length of Visible Light 13h 06m
Length of Day
12h 07m
Waxing Crescent, 50% of the Moon is Illuminated
Mar 19
Waxing Crescent
Mar 19
First Quarter
Mar 27
Full
Apr 2
Last Quarter
Apr 10
New

Hourly Weather History & Observations

Time (CDT) Temp. Windchill Dew Point Humidity Pressure Visibility Wind Dir Wind Speed Gust Speed Precip Events Conditions
12:12 AM 12.2 °F -4.3 °F 3.2 °F 67% 29.74 in 10.0 mi WNW 16.1 mph - N/A   Clear
12:32 AM 12.2 °F -2.5 °F 3.2 °F 67% 29.75 in 10.0 mi WNW 12.7 mph 19.6 mph N/A   Clear
12:52 AM 12.2 °F -3.1 °F 3.2 °F 67% 29.75 in 10.0 mi WNW 13.8 mph 21.9 mph N/A   Clear
1:12 AM 12.2 °F -1.8 °F 3.2 °F 67% 29.76 in 10.0 mi WNW 11.5 mph 18.4 mph N/A   Clear
1:32 AM 10.4 °F -6.0 °F 1.4 °F 67% 29.76 in 10.0 mi WNW 15.0 mph 20.7 mph N/A   Clear
1:52 AM 10.4 °F -5.4 °F 1.4 °F 67% 29.76 in 10.0 mi WNW 13.8 mph 23.0 mph N/A   Clear
2:12 AM 10.4 °F -6.0 °F 1.4 °F 67% 29.77 in 10.0 mi WNW 15.0 mph 21.9 mph N/A   Clear
2:32 AM 10.4 °F -6.0 °F 1.4 °F 67% 29.78 in 10.0 mi WNW 15.0 mph 23.0 mph N/A   Clear
2:52 AM 10.4 °F -5.4 °F 1.4 °F 67% 29.79 in 10.0 mi WNW 13.8 mph 19.6 mph N/A   Clear
3:12 AM 10.4 °F -5.4 °F 1.4 °F 67% 29.79 in 10.0 mi WNW 13.8 mph 21.9 mph N/A   Clear
3:32 AM 10.4 °F -6.0 °F 1.4 °F 67% 29.80 in 10.0 mi WNW 15.0 mph 25.3 mph N/A   Clear
3:52 AM 10.4 °F -6.6 °F 1.4 °F 67% 29.80 in 10.0 mi WNW 16.1 mph 23.0 mph N/A   Clear
4:12 AM 10.4 °F -4.1 °F 1.4 °F 67% 29.81 in 10.0 mi WNW 11.5 mph 24.2 mph N/A   Clear
4:32 AM 10.4 °F -4.1 °F 1.4 °F 67% 29.82 in 10.0 mi WNW 11.5 mph 18.4 mph N/A   Clear
4:52 AM 8.6 °F -6.3 °F 1.4 °F 73% 29.83 in 10.0 mi WNW 11.5 mph - N/A   Clear
5:12 AM 8.6 °F -7.0 °F 1.4 °F 73% 29.83 in 10.0 mi WNW 12.7 mph 17.3 mph N/A   Clear
5:32 AM 8.6 °F -7.7 °F 1.4 °F 73% 29.84 in 10.0 mi WNW 13.8 mph 19.6 mph N/A   Clear
5:52 AM 8.6 °F -7.0 °F 1.4 °F 73% 29.85 in 10.0 mi WNW 12.7 mph 19.6 mph N/A   Clear
6:12 AM 8.6 °F -6.3 °F 1.4 °F 73% 29.86 in 10.0 mi WNW 11.5 mph 19.6 mph N/A   Clear
6:32 AM 8.6 °F -8.3 °F 1.4 °F 73% 29.87 in 10.0 mi NW 15.0 mph 20.7 mph N/A   Clear
6:52 AM 10.4 °F -5.4 °F 1.4 °F 67% 29.88 in 10.0 mi WNW 13.8 mph 19.6 mph N/A   Clear
7:12 AM 8.6 °F -7.7 °F -0.4 °F 67% 29.90 in 10.0 mi NW 13.8 mph 19.6 mph N/A   Clear
7:32 AM 8.6 °F -8.3 °F -0.4 °F 67% 29.90 in 10.0 mi NW 15.0 mph 19.6 mph N/A   Clear
7:52 AM 8.6 °F -8.3 °F -0.4 °F 67% 29.92 in 10.0 mi NW 15.0 mph 21.9 mph N/A   Clear
8:12 AM 10.4 °F -6.0 °F -0.4 °F 62% 29.93 in 10.0 mi NW 15.0 mph 24.2 mph N/A   Clear
8:32 AM 10.4 °F -6.6 °F -0.4 °F 62% 29.94 in 10.0 mi NW 16.1 mph 24.2 mph N/A   Clear
8:52 AM 12.2 °F -4.8 °F 1.4 °F 62% 29.94 in 10.0 mi NW 17.3 mph 26.5 mph N/A   Clear
9:12 AM 12.2 °F -4.8 °F 1.4 °F 62% 29.95 in 10.0 mi NW 17.3 mph 24.2 mph N/A   Clear
9:32 AM 12.2 °F -4.8 °F 1.4 °F 62% 29.96 in 10.0 mi NW 17.3 mph 24.2 mph N/A   Clear
9:52 AM 14.0 °F -2.5 °F 1.4 °F 57% 29.96 in 10.0 mi NW 17.3 mph 23.0 mph N/A   Clear
10:12 AM 14.0 °F 0.5 °F 1.4 °F 57% 29.97 in 10.0 mi NW 11.5 mph 21.9 mph N/A   Clear
10:31 AM 14.0 °F -1.4 °F 1.4 °F 57% 29.97 in 10.0 mi NW 15.0 mph 20.7 mph N/A   Clear
10:52 AM 17.6 °F 3.2 °F 1.4 °F 49% 29.98 in 10.0 mi NW 15.0 mph 20.7 mph N/A   Clear
11:12 AM 17.6 °F 1.3 °F 1.4 °F 49% 29.98 in 10.0 mi NW 19.6 mph 25.3 mph N/A   Clear
11:32 AM 19.4 °F 4.1 °F 1.4 °F 46% 29.99 in 7.0 mi NW 18.4 mph 24.2 mph N/A   Clear
11:52 AM 19.4 °F 5.0 °F 1.4 °F 46% 29.99 in 0.5 mi NW 16.1 mph 25.3 mph N/A Snow Light Snow
12:12 PM 21.2 °F 8.9 °F 3.2 °F 46% 29.99 in 1.2 mi NW 12.7 mph 20.7 mph N/A Snow Light Snow
12:32 PM 23.0 °F 10.6 °F 1.4 °F 39% 29.99 in 1.8 mi NW 13.8 mph 23.0 mph N/A   Haze
12:52 PM 23.0 °F 10.6 °F 3.2 °F 43% 30.00 in 2.0 mi NW 13.8 mph 19.6 mph N/A   Haze
1:12 PM 24.8 °F 12.9 °F 3.2 °F 40% 30.00 in 7.0 mi WNW 13.8 mph 18.4 mph N/A   Clear
1:32 PM 24.8 °F 14.0 °F 3.2 °F 40% 30.00 in 3.0 mi WNW 11.5 mph 19.6 mph N/A   Haze
1:52 PM 24.8 °F 12.4 °F 3.2 °F 40% 30.00 in 4.0 mi West 15.0 mph 18.4 mph N/A   Haze
2:12 PM 26.6 °F 16.8 °F 3.2 °F 37% 30.01 in 5.0 mi WNW 10.4 mph 20.7 mph N/A   Haze
2:32 PM 26.6 °F 15.7 °F 3.2 °F 37% 30.01 in 1.8 mi WNW 12.7 mph 19.6 mph N/A   Haze
2:52 PM 26.6 °F 13.8 °F 3.2 °F 37% 30.01 in 1.2 mi WNW 17.3 mph 24.2 mph N/A   Haze
3:12 PM 26.6 °F 14.7 °F 3.2 °F 37% 30.01 in 4.0 mi WNW 15.0 mph 20.7 mph N/A   Haze
3:32 PM 24.8 °F 12.9 °F 1.4 °F 36% 30.02 in 1.8 mi West 13.8 mph 21.9 mph N/A   Haze
3:52 PM 24.8 °F 11.9 °F 1.4 °F 36% 30.02 in 5.0 mi WNW 16.1 mph 21.9 mph N/A Snow Light Snow
4:12 PM 24.8 °F 12.4 °F 1.4 °F 36% 30.02 in 10.0 mi WNW 15.0 mph 18.4 mph N/A   Mostly Cloudy
4:32 PM 26.6 °F 16.8 °F 3.2 °F 37% 30.03 in 10.0 mi WNW 10.4 mph 21.9 mph N/A   Overcast
4:52 PM 24.8 °F 14.0 °F 1.4 °F 36% 30.04 in 10.0 mi WNW 11.5 mph 19.6 mph N/A   Mostly Cloudy
5:12 PM 24.8 °F 12.4 °F 1.4 °F 36% 30.04 in 5.0 mi WNW 15.0 mph 23.0 mph N/A   Haze
5:31 PM 24.8 °F 14.6 °F 1.4 °F 36% 30.05 in 10.0 mi WNW 10.4 mph 21.9 mph N/A   Clear
5:52 PM 23.0 °F 9.6 °F -0.4 °F 36% 30.06 in 10.0 mi WNW 16.1 mph 19.6 mph N/A   Clear
6:12 PM 21.2 °F 8.9 °F 1.4 °F 42% 30.07 in 10.0 mi NW 12.7 mph - N/A   Clear
6:32 PM 21.2 °F 8.3 °F -0.4 °F 39% 30.07 in 10.0 mi WNW 13.8 mph 20.7 mph N/A   Clear
6:52 PM 19.4 °F 4.5 °F -0.4 °F 42% 30.08 in 10.0 mi WNW 17.3 mph 21.9 mph N/A   Clear
7:12 PM 19.4 °F 6.0 °F -0.4 °F 42% 30.09 in 10.0 mi WNW 13.8 mph - N/A   Clear
7:32 PM 17.6 °F 2.7 °F -2.2 °F 42% 30.10 in 10.0 mi WNW 16.1 mph 24.2 mph N/A   Clear
7:52 PM 17.6 °F 2.7 °F -4.0 °F 38% 30.10 in 10.0 mi WNW 16.1 mph 21.9 mph N/A   Clear
8:12 PM 15.8 °F 1.4 °F -5.8 °F 38% 30.11 in 10.0 mi WNW 13.8 mph 23.0 mph N/A   Clear
8:32 PM 14.0 °F -1.4 °F -5.8 °F 41% 30.12 in 10.0 mi WNW 15.0 mph 23.0 mph N/A   Clear
8:52 PM 14.0 °F -0.8 °F -4.0 °F 45% 30.12 in 10.0 mi WNW 13.8 mph 21.9 mph N/A   Clear
9:12 PM 14.0 °F -2.0 °F -5.8 °F 41% 30.12 in 10.0 mi WNW 16.1 mph 23.0 mph N/A   Clear
9:32 PM 12.2 °F -4.3 °F -5.8 °F 45% 30.12 in 10.0 mi NW 16.1 mph 21.9 mph N/A   Clear
9:52 PM 12.2 °F -3.1 °F -5.8 °F 45% 30.12 in 10.0 mi WNW 13.8 mph 23.0 mph N/A   Clear
10:12 PM 12.2 °F -5.3 °F -5.8 °F 45% 30.13 in 10.0 mi NW 18.4 mph 24.2 mph N/A   Clear
10:32 PM 12.2 °F -5.3 °F -5.8 °F 45% 30.13 in 10.0 mi NW 18.4 mph 24.2 mph N/A   Clear
10:52 PM 10.4 °F -8.2 °F -5.8 °F 48% 30.13 in 10.0 mi NW 19.6 mph 25.3 mph N/A   Clear
11:11 PM 10.4 °F -6.6 °F -5.8 °F 48% 30.13 in 10.0 mi NW 16.1 mph 23.0 mph N/A   Clear
11:32 PM 10.4 °F -6.0 °F -5.8 °F 48% 30.13 in 10.0 mi NW 15.0 mph 25.3 mph N/A   Clear
11:52 PM 10.4 °F -7.7 °F -5.8 °F 48% 30.14 in 10.0 mi NW 18.4 mph 21.9 mph N/A   Clear